ADDS METAR Data INFO
IDs: Format: Raw Decoded Include TAF

Data at: 2051 UTC 24 Jun 2017

KF00 242035Z AUTO 06010KT 10SM CLR 26/18 A3012 RMK AO2
KF00 242015Z AUTO 07010KT 10SM CLR 25/18 A3012 RMK AO2
KF00 241955Z AUTO 06012KT 10SM CLR 25/18 A3012 RMK AO2
KF00 241935Z AUTO 06010KT 10SM CLR 25/19 A3013 RMK AO2
KF00 241915Z AUTO 06011G16KT 10SM CLR 24/20 A3012 RMK AO2
KF00 241855Z AUTO 05007KT 10SM CLR 24/20 A3013 RMK AO2
KF00 241835Z AUTO 05007KT 10SM SCT060 23/20 A3013 RMK AO2
KF00 241815Z AUTO 05007KT 020V080 10SM SCT035 BKN043 OVC050 22/20 A3014 RMK AO2
KF00 241755Z AUTO 02007KT 10SM BKN035 OVC046 22/20 A3015 RMK AO2
KF00 241735Z AUTO 01005KT 10SM OVC033 22/20 A3016 RMK AO2
KF00 241715Z AUTO 02005KT 10SM OVC033 22/20 A3016 RMK AO2
KF00 241655Z AUTO 03004KT 10SM BKN031 OVC050 21/20 A3016 RMK AO2
KF00 241635Z AUTO 03004KT 10SM SCT026 BKN033 OVC050 21/20 A3017 RMK AO2
KF00 241615Z AUTO 00000KT 10SM BKN026 OVC033 21/20 A3018 RMK AO2
KF00 241555Z AUTO 06003KT 10SM BKN024 OVC029 21/20 A3016 RMK AO2 P0001
KF00 241535Z AUTO 03004KT 10SM -RA SCT011 SCT017 OVC022 20/20 A3016 RMK AO2 P0001
KF00 241515Z AUTO 01007KT 10SM -RA OVC011 20/20 A3016 RMK AO2 P0001
KF00 241455Z AUTO 01005KT 10SM RA SCT004 OVC011 20/20 A3017 RMK AO2 P0013
KF00 241435Z AUTO 35005KT 7SM RA BR BKN006 OVC010 20/20 A3016 RMK AO2 LTG DSNT S P0009
KF00 241415Z AUTO 33003KT 7SM RA BR BKN008 BKN017 OVC029 20/20 A3016 RMK AO2 LTG DSNT E THRU W P0005
KF00 241355Z AUTO 04003KT 7SM +TSRA BR SCT008 BKN017 OVC024 20/20 A3015 RMK AO2 LTG DSNT ALQDS P0039
KF00 241335Z AUTO 00000KT 7SM TSRA BR SCT009 BKN017 OVC024 20/20 A3014 RMK AO2 LTG DSNT ALQDS P0036
KF00 241315Z AUTO 31006KT 1 1/2SM +TSRA BR BKN007 OVC018 21/20 A3016 RMK AO2 VIS 1V5 LTG DSNT ALQDS P0028
KF00 241255Z AUTO 33005KT 2SM +TSRA BR SCT007 BKN014 OVC033 21/20 A3016 RMK AO2 VIS 1V3 1/2 LTG DSNT ALQDS P0070
KF00 241235Z AUTO 31007KT 2 1/2SM +TSRA BR BKN014 BKN024 OVC029 21/20 A3013 RMK AO2 LTG DSNT ALQDS P0027
KF00 241215Z AUTO 35005KT 10SM VCTSRA OVC014 22/21 A3012 RMK AO2 LTG DSNT ALQDS P0002
KF00 241155Z AUTO 07006KT 10SM VCTS BKN014 OVC033 22/21 A3008 RMK AO2 LTG DSNT SW THRU N
KF00 241135Z AUTO 10009KT 10SM VCTS OVC014 22/21 A3006 RMK AO2 LTG DSNT W THRU N
KF00 241115Z AUTO 10007KT 10SM BKN016 OVC032 22/21 A3004 RMK AO2 LTG DSNT W AND NW
KF00 241055Z AUTO 11009KT 10SM -RA BKN016 BKN020 OVC030 23/21 A3003 RMK AO2 LTG DSNT W THRU N
KF00 241035Z AUTO 10007KT 10SM -VCTSRA BKN016 BKN021 OVC028 23/21 A3003 RMK AO2 LTG DSNT N AND W
KF00 241015Z AUTO 10008KT 10SM VCTS SCT016 BKN028 OVC043 23/21 A3003 RMK AO2 LTG DSNT ALQDS
KF00 240955Z AUTO 08006KT 10SM OVC041 23/22 A3002 RMK AO2 LTG DSNT W
KF00 240935Z AUTO 11007KT 10SM SCT023 OVC039 23/22 A3000 RMK AO2
KF00 240915Z AUTO 11009KT 10SM BKN016 OVC023 23/22 A3000 RMK AO2 LTG DSNT SE S AND NW
KF00 240855Z AUTO 10011KT 10SM SCT015 OVC021 24/22 A2998 RMK AO2 LTG DSNT SE SW AND NW
KF00 240835Z AUTO 11005KT 10SM SCT010 OVC015 24/23 A2998 RMK AO2 LTG DSNT SE AND S
KF00 240815Z AUTO 00000KT 10SM OVC013 24/23 A2996 RMK AO2 LTG DSNT S
KF00 240755Z AUTO 00000KT 10SM OVC015 24/23 A2996 RMK AO2
KF00 240735Z AUTO 10005KT 10SM OVC015 24/23 A2997 RMK AO2 LTG DSNT SE THRU W
KF00 240715Z AUTO 00000KT 10SM OVC019 24/23 A2998 RMK AO2 LTG DSNT SE AND S
KF00 240655Z AUTO 09005KT 10SM OVC021 23/23 A2997 RMK AO2 LTG DSNT SE AND S P0001
KF00 240635Z AUTO 21004KT 10SM OVC021 23/22 A2998 RMK AO2 LTG DSNT E THRU SW P0001
KF00 240615Z AUTO 20005KT 10SM -RA OVC021 24/22 A2999 RMK AO2 LTG DSNT SE THRU SW P0001
KF00 240555Z AUTO 27005KT 10SM VCTSRA BKN021 OVC031 25/22 A2999 RMK AO2 LTG DSNT SE THRU W P0002
KF00 240535Z AUTO 23004KT 10SM -RA BKN023 OVC031 26/22 A2998 RMK AO2 LTG DSNT E THRU SW
KF00 240515Z AUTO 06005KT 10SM OVC023 27/23 A2997 RMK AO2 LTG DSNT SE THRU SW
KF00 240455Z AUTO 06008KT 10SM BKN023 BKN039 OVC050 27/23 A2997 RMK AO2 LTG DSNT E THRU SW
KF00 240435Z AUTO 03008KT 10SM BKN039 OVC048 27/23 A2996 RMK AO2 LTG DSNT E THRU SW
KF00 240415Z AUTO 05010KT 10SM SCT036 BKN048 27/23 A2996 RMK AO2 LTG DSNT E THRU SW
KF00 240355Z AUTO 02009G17KT 10SM VCTS SCT050 27/23 A2993 RMK AO2 LTG DSNT E THRU SW
KF00 240335Z AUTO 03012G22KT 10SM VCTS SCT046 28/23 A2994 RMK AO2 LTG DSNT E THRU SW
KF00 240315Z AUTO 03013G23KT 10SM BKN046 BKN050 28/23 A2990 RMK AO2 LTG DSNT E THRU SW
KF00 240255Z AUTO 02011KT 10SM VCTS BKN042 BKN049 OVC060 29/23 A2989 RMK AO2 LTG DSNT E THRU SW
KF00 240235Z AUTO 02010KT 10SM BKN039 BKN045 BKN060 29/23 A2988 RMK AO2 LTG DSNT E THRU SW
KF00 240215Z AUTO 03011KT 10SM SCT041 SCT050 SCT060 30/23 A2988 RMK AO2
KF00 240155Z AUTO 03010KT 10SM SCT041 30/23 A2988 RMK AO2
KF00 240135Z AUTO 02011KT 10SM CLR 30/24 A2986 RMK AO2
KF00 240115Z AUTO 04004KT 10SM CLR 31/24 A2984 RMK AO2
KF00 240055Z AUTO 08003KT 10SM CLR 32/24 A2984 RMK AO2
KF00 240035Z AUTO 06006KT 10SM CLR 33/23 A2984 RMK AO2
KF00 240015Z AUTO 07006KT 10SM CLR 33/23 A2984 RMK AO2
KF00 232355Z AUTO 06007KT 10SM CLR 34/23 A2982 RMK AO2
KF00 232335Z AUTO 10008KT 10SM CLR 34/21 A2982 RMK AO2
KF00 232315Z AUTO 09007KT 10SM CLR 34/22 A2981 RMK AO2
KF00 232255Z AUTO 07005KT 10SM CLR 34/23 A2982 RMK AO2
KF00 232235Z AUTO 05005KT 10SM SCT047 33/23 A2981 RMK AO2
KF00 232215Z AUTO 05005KT 10SM SCT047 34/23 A2982 RMK AO2
KF00 232155Z AUTO 09005KT 10SM CLR 34/23 A2981 RMK AO2
KF00 232135Z AUTO 00000KT 10SM CLR 35/23 A2981 RMK AO2
KF00 232115Z AUTO 02004KT 10SM CLR 35/23 A2982 RMK AO2
KF00 232055Z AUTO 36007KT 10SM CLR 34/23 A2983 RMK AO2 LTG DSNT NE
KF00 232035Z AUTO 01004KT 10SM SCT050 34/23 A2983 RMK AO2
KF00 232015Z AUTO 00000KT 10SM CLR 34/23 A2983 RMK AO2
KF00 231955Z AUTO 11004KT 10SM CLR 34/24 A2983 RMK AO2
KF00 231935Z AUTO 05006KT 10SM SCT090 33/24 A2983 RMK AO2
KF00 231915Z AUTO 18004KT 10SM SCT090 33/24 A2983 RMK AO2
KF00 231855Z AUTO 14004KT 10SM CLR 33/24 A2983 RMK AO2
KF00 231835Z AUTO 11005KT 10SM CLR 33/24 A2983 RMK AO2
KF00 231815Z AUTO 15006KT 10SM CLR 32/24 A2983 RMK AO2
KF00 231755Z AUTO 19005KT 10SM CLR 32/24 A2982 RMK AO2
KF00 231735Z AUTO 17003KT 10SM CLR 32/24 A2982 RMK AO2
KF00 231715Z AUTO 15007KT 10SM CLR 32/24 A2981 RMK AO2
KF00 231655Z AUTO 13008KT 10SM CLR 31/25 A2980 RMK AO2
KF00 231635Z AUTO 12006KT 10SM CLR 31/25 A2981 RMK AO2
KF00 231615Z AUTO 27004KT 10SM CLR 30/24 A2982 RMK AO2
KF00 231555Z AUTO 00000KT 10SM CLR 29/24 A2982 RMK AO2
KF00 231535Z AUTO 16006KT 10SM CLR 29/24 A2982 RMK AO2
KF00 231515Z AUTO 19006KT 10SM CLR 29/24 A2982 RMK AO2
KF00 231455Z AUTO 21007KT 10SM CLR 29/24 A2983 RMK AO2 LTG DSNT E
KF00 231435Z AUTO 22007KT 10SM CLR 28/24 A2983 RMK AO2
KF00 231415Z AUTO 21007KT 10SM CLR 28/24 A2982 RMK AO2
KF00 231355Z AUTO 21007KT 10SM CLR 27/24 A2980 RMK AO2
KF00 231335Z AUTO 22008KT 10SM CLR 26/24 A2980 RMK AO2
KF00 231315Z AUTO 19006KT 10SM CLR 25/23 A2978 RMK AO2
KF00 231255Z AUTO 18007KT 10SM CLR 24/23 A2977 RMK AO2
KF00 231235Z AUTO 18007KT 10SM CLR 24/22 A2976 RMK AO2
KF00 231215Z AUTO 19005KT 10SM CLR 23/22 A2976 RMK AO2
KF00 231155Z AUTO 18005KT 10SM CLR 23/22 A2976 RMK AO2
KF00 231135Z AUTO 19006KT 10SM CLR 23/22 A2975 RMK AO2
KF00 231115Z AUTO 18005KT 10SM CLR 22/22 A2974 RMK AO2
KF00 231055Z AUTO 21005KT 10SM CLR 23/22 A2974 RMK AO2
KF00 231035Z AUTO 21005KT 10SM CLR 23/22 A2973 RMK AO2
KF00 231015Z AUTO 20005KT 10SM CLR 23/22 A2973 RMK AO2
KF00 230955Z AUTO 18006KT 10SM CLR 23/22 A2972 RMK AO2
KF00 230935Z AUTO 20004KT 10SM CLR 23/22 A2973 RMK AO2
KF00 230915Z AUTO 20003KT 10SM CLR 23/22 A2973 RMK AO2
KF00 230855Z AUTO 00000KT 10SM CLR 23/22 A2973 RMK AO2


Page loaded:  20:51 UTC  |   01:51 PM Pacific  |   02:51 PM Mountain  |   03:51 PM Central  |   04:51 PM Eastern

 

ADVISORIES

FORECASTS

FORECASTS

OBSERVATIONS

USER TOOLS

ABOUT US